sensor_id;sensor_type;location;lat;lon;timestamp;temperature;humidity
29547;DHT22;40782;47.264;11.330;2023-07-22T00:00:10;16.50;99.90
29547;DHT22;40782;47.264;11.330;2023-07-22T00:02:39;16.50;99.90
29547;DHT22;40782;47.264;11.330;2023-07-22T00:05:06;16.50;99.90
29547;DHT22;40782;47.264;11.330;2023-07-22T00:07:35;16.50;99.90
29547;DHT22;40782;47.264;11.330;2023-07-22T00:10:03;16.40;99.90
29547;DHT22;40782;47.264;11.330;2023-07-22T00:12:32;16.40;99.90
29547;DHT22;40782;47.264;11.330;2023-07-22T00:15:00;16.50;99.90
29547;DHT22;40782;47.264;11.330;2023-07-22T00:17:27;16.50;99.90
29547;DHT22;40782;47.264;11.330;2023-07-22T00:19:55;16.50;99.90
29547;DHT22;40782;47.264;11.330;2023-07-22T00:22:22;16.50;99.90
29547;DHT22;40782;47.264;11.330;2023-07-22T00:24:49;16.40;99.90
29547;DHT22;40782;47.264;11.330;2023-07-22T00:27:16;16.40;99.90
29547;DHT22;40782;47.264;11.330;2023-07-22T00:29:44;16.30;99.90
29547;DHT22;40782;47.264;11.330;2023-07-22T00:32:12;16.40;99.90
29547;DHT22;40782;47.264;11.330;2023-07-22T00:34:40;16.40;99.90
29547;DHT22;40782;47.264;11.330;2023-07-22T00:37:07;16.40;99.90
29547;DHT22;40782;47.264;11.330;2023-07-22T00:39:34;16.40;99.90
29547;DHT22;40782;47.264;11.330;2023-07-22T00:42:01;16.50;99.90
29547;DHT22;40782;47.264;11.330;2023-07-22T00:44:28;16.50;99.90
29547;DHT22;40782;47.264;11.330;2023-07-22T00:46:56;16.40;99.90
29547;DHT22;40782;47.264;11.330;2023-07-22T00:49:24;16.30;99.90
29547;DHT22;40782;47.264;11.330;2023-07-22T00:51:52;16.20;99.90
29547;DHT22;40782;47.264;11.330;2023-07-22T00:54:19;16.20;99.90
29547;DHT22;40782;47.264;11.330;2023-07-22T00:56:46;16.20;99.90
29547;DHT22;40782;47.264;11.330;2023-07-22T00:59:14;16.30;99.90
29547;DHT22;40782;47.264;11.330;2023-07-22T01:01:42;16.30;99.90
29547;DHT22;40782;47.264;11.330;2023-07-22T01:04:13;16.30;99.90
29547;DHT22;40782;47.264;11.330;2023-07-22T01:06:40;16.40;99.90
29547;DHT22;40782;47.264;11.330;2023-07-22T01:09:07;16.40;99.90
29547;DHT22;40782;47.264;11.330;2023-07-22T01:11:34;16.40;99.90
29547;DHT22;40782;47.264;11.330;2023-07-22T01:14:01;16.40;99.90
29547;DHT22;40782;47.264;11.330;2023-07-22T01:16:29;16.50;99.90
29547;DHT22;40782;47.264;11.330;2023-07-22T01:18:56;16.40;99.90
29547;DHT22;40782;47.264;11.330;2023-07-22T01:21:25;16.30;99.90
29547;DHT22;40782;47.264;11.330;2023-07-22T01:23:54;16.30;99.90
29547;DHT22;40782;47.264;11.330;2023-07-22T01:26:22;16.30;99.90
29547;DHT22;40782;47.264;11.330;2023-07-22T01:28:49;16.40;99.90
29547;DHT22;40782;47.264;11.330;2023-07-22T01:31:16;16.40;99.90
29547;DHT22;40782;47.264;11.330;2023-07-22T01:33:43;16.40;99.90
29547;DHT22;40782;47.264;11.330;2023-07-22T01:36:11;16.30;99.90
29547;DHT22;40782;47.264;11.330;2023-07-22T01:38:38;16.40;99.90
29547;DHT22;40782;47.264;11.330;2023-07-22T01:41:07;16.50;99.90
29547;DHT22;40782;47.264;11.330;2023-07-22T01:43:34;16.60;99.90
29547;DHT22;40782;47.264;11.330;2023-07-22T01:46:01;16.50;99.90
29547;DHT22;40782;47.264;11.330;2023-07-22T01:48:28;16.60;99.90
29547;DHT22;40782;47.264;11.330;2023-07-22T01:50:55;16.60;99.90
29547;DHT22;40782;47.264;11.330;2023-07-22T01:53:22;16.50;99.90
29547;DHT22;40782;47.264;11.330;2023-07-22T01:55:49;16.60;99.90
29547;DHT22;40782;47.264;11.330;2023-07-22T01:58:18;16.60;99.90
29547;DHT22;40782;47.264;11.330;2023-07-22T02:00:49;16.70;99.90
29547;DHT22;40782;47.264;11.330;2023-07-22T02:03:15;16.60;99.90
29547;DHT22;40782;47.264;11.330;2023-07-22T02:05:42;16.60;99.90
29547;DHT22;40782;47.264;11.330;2023-07-22T02:08:10;16.50;99.90
29547;DHT22;40782;47.264;11.330;2023-07-22T02:10:37;16.50;99.90
29547;DHT22;40782;47.264;11.330;2023-07-22T02:13:04;16.60;99.90
29547;DHT22;40782;47.264;11.330;2023-07-22T02:15:33;16.60;99.90
29547;DHT22;40782;47.264;11.330;2023-07-22T02:18:00;16.40;99.90
29547;DHT22;40782;47.264;11.330;2023-07-22T02:20:27;16.20;99.90
29547;DHT22;40782;47.264;11.330;2023-07-22T02:22:54;16.20;99.90
29547;DHT22;40782;47.264;11.330;2023-07-22T02:25:21;16.30;99.90
29547;DHT22;40782;47.264;11.330;2023-07-22T02:27:48;16.20;99.90
29547;DHT22;40782;47.264;11.330;2023-07-22T02:30:16;16.20;99.90
29547;DHT22;40782;47.264;11.330;2023-07-22T02:32:44;16.10;99.90
29547;DHT22;40782;47.264;11.330;2023-07-22T02:35:11;16.10;99.90
29547;DHT22;40782;47.264;11.330;2023-07-22T02:37:39;16.10;99.90
29547;DHT22;40782;47.264;11.330;2023-07-22T02:40:06;16.10;99.90
29547;DHT22;40782;47.264;11.330;2023-07-22T02:42:37;16.10;99.90
29547;DHT22;40782;47.264;11.330;2023-07-22T02:45:04;16.00;99.90
29547;DHT22;40782;47.264;11.330;2023-07-22T02:47:33;16.10;99.90
29547;DHT22;40782;47.264;11.330;2023-07-22T02:50:02;16.00;99.90
29547;DHT22;40782;47.264;11.330;2023-07-22T02:52:30;16.00;99.90
29547;DHT22;40782;47.264;11.330;2023-07-22T02:55:04;16.10;99.90
29547;DHT22;40782;47.264;11.330;2023-07-22T02:57:31;16.00;99.90
29547;DHT22;40782;47.264;11.330;2023-07-22T02:59:58;16.00;99.90
29547;DHT22;40782;47.264;11.330;2023-07-22T03:02:25;16.10;99.90
29547;DHT22;40782;47.264;11.330;2023-07-22T03:04:53;16.00;99.90
29547;DHT22;40782;47.264;11.330;2023-07-22T03:07:23;16.00;99.90
29547;DHT22;40782;47.264;11.330;2023-07-22T03:09:52;16.10;99.90
29547;DHT22;40782;47.264;11.330;2023-07-22T03:12:19;16.10;99.90
29547;DHT22;40782;47.264;11.330;2023-07-22T03:14:47;16.10;99.90
29547;DHT22;40782;47.264;11.330;2023-07-22T03:17:14;16.10;99.90
29547;DHT22;40782;47.264;11.330;2023-07-22T03:19:42;16.10;99.90
29547;DHT22;40782;47.264;11.330;2023-07-22T03:22:10;16.00;99.90
29547;DHT22;40782;47.264;11.330;2023-07-22T03:24:39;16.00;99.90
29547;DHT22;40782;47.264;11.330;2023-07-22T03:27:06;16.00;99.90
29547;DHT22;40782;47.264;11.330;2023-07-22T03:29:33;16.10;99.90
29547;DHT22;40782;47.264;11.330;2023-07-22T03:32:00;16.10;99.90
29547;DHT22;40782;47.264;11.330;2023-07-22T03:34:27;16.20;99.90
29547;DHT22;40782;47.264;11.330;2023-07-22T03:36:54;16.30;99.90
29547;DHT22;40782;47.264;11.330;2023-07-22T03:39:21;16.30;99.90
29547;DHT22;40782;47.264;11.330;2023-07-22T03:41:49;16.40;99.90
29547;DHT22;40782;47.264;11.330;2023-07-22T03:44:16;16.40;99.90
29547;DHT22;40782;47.264;11.330;2023-07-22T03:46:44;16.50;99.90
29547;DHT22;40782;47.264;11.330;2023-07-22T03:49:11;16.50;99.90
29547;DHT22;40782;47.264;11.330;2023-07-22T03:51:38;16.50;99.90
29547;DHT22;40782;47.264;11.330;2023-07-22T03:54:05;16.50;99.90
29547;DHT22;40782;47.264;11.330;2023-07-22T03:56:32;16.50;99.90
29547;DHT22;40782;47.264;11.330;2023-07-22T03:59:00;16.50;99.90
29547;DHT22;40782;47.264;11.330;2023-07-22T04:01:27;16.50;99.90
29547;DHT22;40782;47.264;11.330;2023-07-22T04:03:54;16.60;99.90
29547;DHT22;40782;47.264;11.330;2023-07-22T04:06:21;16.60;99.90
29547;DHT22;40782;47.264;11.330;2023-07-22T04:08:48;16.60;99.90
29547;DHT22;40782;47.264;11.330;2023-07-22T04:11:15;16.60;99.90
29547;DHT22;40782;47.264;11.330;2023-07-22T04:13:42;16.60;99.90
29547;DHT22;40782;47.264;11.330;2023-07-22T04:16:11;16.60;99.90
29547;DHT22;40782;47.264;11.330;2023-07-22T04:18:38;16.60;99.90
29547;DHT22;40782;47.264;11.330;2023-07-22T04:21:05;16.70;99.90
29547;DHT22;40782;47.264;11.330;2023-07-22T04:23:32;16.70;99.90
29547;DHT22;40782;47.264;11.330;2023-07-22T04:26:01;16.70;99.90
29547;DHT22;40782;47.264;11.330;2023-07-22T04:28:30;16.70;99.90
29547;DHT22;40782;47.264;11.330;2023-07-22T04:30:57;16.70;99.90
29547;DHT22;40782;47.264;11.330;2023-07-22T04:33:27;16.60;99.90
29547;DHT22;40782;47.264;11.330;2023-07-22T04:35:55;16.60;99.90
29547;DHT22;40782;47.264;11.330;2023-07-22T04:38:22;16.60;99.90
29547;DHT22;40782;47.264;11.330;2023-07-22T04:40:49;16.60;99.90
29547;DHT22;40782;47.264;11.330;2023-07-22T04:43:16;16.70;99.90
29547;DHT22;40782;47.264;11.330;2023-07-22T04:45:44;16.70;99.90
29547;DHT22;40782;47.264;11.330;2023-07-22T04:48:13;16.70;99.90
29547;DHT22;40782;47.264;11.330;2023-07-22T04:50:43;16.70;99.90
29547;DHT22;40782;47.264;11.330;2023-07-22T04:53:11;16.70;99.90
29547;DHT22;40782;47.264;11.330;2023-07-22T04:55:39;16.60;99.90
29547;DHT22;40782;47.264;11.330;2023-07-22T04:58:06;16.70;99.90
29547;DHT22;40782;47.264;11.330;2023-07-22T05:00:34;16.70;99.90
29547;DHT22;40782;47.264;11.330;2023-07-22T05:03:01;16.70;99.90
29547;DHT22;40782;47.264;11.330;2023-07-22T05:05:28;16.70;99.90
29547;DHT22;40782;47.264;11.330;2023-07-22T05:07:55;16.70;99.90
29547;DHT22;40782;47.264;11.330;2023-07-22T05:10:23;16.70;99.90
29547;DHT22;40782;47.264;11.330;2023-07-22T05:12:50;16.70;99.90
29547;DHT22;40782;47.264;11.330;2023-07-22T05:15:17;16.80;99.90
29547;DHT22;40782;47.264;11.330;2023-07-22T05:17:44;16.80;99.90
29547;DHT22;40782;47.264;11.330;2023-07-22T05:20:12;16.80;99.90
29547;DHT22;40782;47.264;11.330;2023-07-22T05:22:40;16.80;99.90
29547;DHT22;40782;47.264;11.330;2023-07-22T05:25:09;17.00;99.90
29547;DHT22;40782;47.264;11.330;2023-07-22T05:27:36;17.10;99.90
29547;DHT22;40782;47.264;11.330;2023-07-22T05:30:03;17.20;99.90
29547;DHT22;40782;47.264;11.330;2023-07-22T05:32:31;17.20;99.90
29547;DHT22;40782;47.264;11.330;2023-07-22T05:34:58;17.30;99.90
29547;DHT22;40782;47.264;11.330;2023-07-22T05:37:25;17.30;99.90
29547;DHT22;40782;47.264;11.330;2023-07-22T05:39:52;17.30;99.90
29547;DHT22;40782;47.264;11.330;2023-07-22T05:42:20;17.30;99.90
29547;DHT22;40782;47.264;11.330;2023-07-22T05:44:48;17.30;99.90
29547;DHT22;40782;47.264;11.330;2023-07-22T05:47:15;17.40;99.90
29547;DHT22;40782;47.264;11.330;2023-07-22T05:49:42;17.50;99.90
29547;DHT22;40782;47.264;11.330;2023-07-22T05:52:09;17.50;99.90
29547;DHT22;40782;47.264;11.330;2023-07-22T05:54:37;17.40;99.90
29547;DHT22;40782;47.264;11.330;2023-07-22T05:57:04;17.50;99.90
29547;DHT22;40782;47.264;11.330;2023-07-22T05:59:32;17.50;99.90
29547;DHT22;40782;47.264;11.330;2023-07-22T06:02:01;17.50;99.90
29547;DHT22;40782;47.264;11.330;2023-07-22T06:04:28;17.60;99.90
29547;DHT22;40782;47.264;11.330;2023-07-22T06:06:55;17.60;99.90
29547;DHT22;40782;47.264;11.330;2023-07-22T06:09:23;17.50;99.90
29547;DHT22;40782;47.264;11.330;2023-07-22T06:11:50;17.50;99.90
29547;DHT22;40782;47.264;11.330;2023-07-22T06:14:17;17.60;99.90
29547;DHT22;40782;47.264;11.330;2023-07-22T06:16:45;17.60;99.90
29547;DHT22;40782;47.264;11.330;2023-07-22T06:19:12;17.70;99.90
29547;DHT22;40782;47.264;11.330;2023-07-22T06:21:39;17.80;99.90
29547;DHT22;40782;47.264;11.330;2023-07-22T06:24:06;17.80;99.90
29547;DHT22;40782;47.264;11.330;2023-07-22T06:26:34;17.80;99.90
29547;DHT22;40782;47.264;11.330;2023-07-22T06:29:01;17.80;99.90
29547;DHT22;40782;47.264;11.330;2023-07-22T06:31:28;18.00;99.90
29547;DHT22;40782;47.264;11.330;2023-07-22T06:33:57;18.10;99.90
29547;DHT22;40782;47.264;11.330;2023-07-22T06:36:25;18.10;99.90
29547;DHT22;40782;47.264;11.330;2023-07-22T06:38:52;18.10;99.90
29547;DHT22;40782;47.264;11.330;2023-07-22T06:41:20;18.20;99.90
29547;DHT22;40782;47.264;11.330;2023-07-22T06:43:49;18.10;99.90
29547;DHT22;40782;47.264;11.330;2023-07-22T06:46:17;18.00;99.90
29547;DHT22;40782;47.264;11.330;2023-07-22T06:48:44;18.20;99.90
29547;DHT22;40782;47.264;11.330;2023-07-22T06:51:12;18.20;99.90
29547;DHT22;40782;47.264;11.330;2023-07-22T06:53:39;18.00;99.90
29547;DHT22;40782;47.264;11.330;2023-07-22T06:56:06;18.10;99.90
29547;DHT22;40782;47.264;11.330;2023-07-22T06:58:33;18.20;99.90
29547;DHT22;40782;47.264;11.330;2023-07-22T07:01:00;18.00;99.90
29547;DHT22;40782;47.264;11.330;2023-07-22T07:03:27;17.90;99.90
29547;DHT22;40782;47.264;11.330;2023-07-22T07:05:55;17.90;99.90
29547;DHT22;40782;47.264;11.330;2023-07-22T07:08:23;18.10;99.90
29547;DHT22;40782;47.264;11.330;2023-07-22T07:10:50;18.20;99.90
29547;DHT22;40782;47.264;11.330;2023-07-22T07:13:17;18.40;99.90
29547;DHT22;40782;47.264;11.330;2023-07-22T07:15:46;18.50;99.90
29547;DHT22;40782;47.264;11.330;2023-07-22T07:18:13;18.50;99.90
29547;DHT22;40782;47.264;11.330;2023-07-22T07:20:40;18.50;99.90
29547;DHT22;40782;47.264;11.330;2023-07-22T07:23:07;18.30;99.90
29547;DHT22;40782;47.264;11.330;2023-07-22T07:25:36;18.30;99.90
29547;DHT22;40782;47.264;11.330;2023-07-22T07:28:03;18.30;99.90
29547;DHT22;40782;47.264;11.330;2023-07-22T07:30:31;18.40;99.90
29547;DHT22;40782;47.264;11.330;2023-07-22T07:32:58;18.40;99.90
29547;DHT22;40782;47.264;11.330;2023-07-22T07:35:25;18.60;99.90
29547;DHT22;40782;47.264;11.330;2023-07-22T07:37:52;18.90;99.90
29547;DHT22;40782;47.264;11.330;2023-07-22T07:40:19;18.90;99.90
29547;DHT22;40782;47.264;11.330;2023-07-22T07:42:47;19.00;99.90
29547;DHT22;40782;47.264;11.330;2023-07-22T07:45:14;19.10;99.90
29547;DHT22;40782;47.264;11.330;2023-07-22T07:47:41;19.20;99.90
29547;DHT22;40782;47.264;11.330;2023-07-22T07:50:09;19.20;99.90
29547;DHT22;40782;47.264;11.330;2023-07-22T07:52:36;19.20;99.90
29547;DHT22;40782;47.264;11.330;2023-07-22T07:55:04;19.30;99.90
29547;DHT22;40782;47.264;11.330;2023-07-22T07:57:31;19.40;99.90
29547;DHT22;40782;47.264;11.330;2023-07-22T08:00:00;19.60;99.90
29547;DHT22;40782;47.264;11.330;2023-07-22T08:02:27;19.70;99.90
29547;DHT22;40782;47.264;11.330;2023-07-22T08:04:54;19.70;99.90
29547;DHT22;40782;47.264;11.330;2023-07-22T08:07:21;19.80;99.90
29547;DHT22;40782;47.264;11.330;2023-07-22T08:09:48;19.90;99.90
29547;DHT22;40782;47.264;11.330;2023-07-22T08:12:15;19.90;99.90
29547;DHT22;40782;47.264;11.330;2023-07-22T08:14:42;20.00;99.90
29547;DHT22;40782;47.264;11.330;2023-07-22T08:17:11;20.00;99.90
29547;DHT22;40782;47.264;11.330;2023-07-22T08:19:38;19.90;99.90
29547;DHT22;40782;47.264;11.330;2023-07-22T08:22:05;20.20;99.90
29547;DHT22;40782;47.264;11.330;2023-07-22T08:24:32;20.40;99.90
29547;DHT22;40782;47.264;11.330;2023-07-22T08:26:59;20.40;99.90
29547;DHT22;40782;47.264;11.330;2023-07-22T08:29:26;20.40;99.90
29547;DHT22;40782;47.264;11.330;2023-07-22T08:31:54;20.40;99.90
29547;DHT22;40782;47.264;11.330;2023-07-22T08:34:22;20.50;99.90
29547;DHT22;40782;47.264;11.330;2023-07-22T08:36:49;20.60;99.90
29547;DHT22;40782;47.264;11.330;2023-07-22T08:39:16;20.60;99.90
29547;DHT22;40782;47.264;11.330;2023-07-22T08:41:45;20.40;99.90
29547;DHT22;40782;47.264;11.330;2023-07-22T08:44:13;20.50;99.90
29547;DHT22;40782;47.264;11.330;2023-07-22T08:46:40;20.70;99.90
29547;DHT22;40782;47.264;11.330;2023-07-22T08:49:08;20.80;99.90
29547;DHT22;40782;47.264;11.330;2023-07-22T08:51:38;20.60;99.90
29547;DHT22;40782;47.264;11.330;2023-07-22T08:54:06;20.80;99.90
29547;DHT22;40782;47.264;11.330;2023-07-22T08:56:33;21.10;99.90
29547;DHT22;40782;47.264;11.330;2023-07-22T08:59:01;21.10;99.90
29547;DHT22;40782;47.264;11.330;2023-07-22T09:01:28;21.20;99.90
29547;DHT22;40782;47.264;11.330;2023-07-22T09:03:55;21.20;99.90
29547;DHT22;40782;47.264;11.330;2023-07-22T09:06:24;21.30;99.90
29547;DHT22;40782;47.264;11.330;2023-07-22T09:08:52;21.30;99.90
29547;DHT22;40782;47.264;11.330;2023-07-22T09:11:20;21.40;99.90
29547;DHT22;40782;47.264;11.330;2023-07-22T09:13:47;21.30;99.90
29547;DHT22;40782;47.264;11.330;2023-07-22T09:16:14;21.30;99.90
29547;DHT22;40782;47.264;11.330;2023-07-22T09:18:42;21.40;99.90
29547;DHT22;40782;47.264;11.330;2023-07-22T09:21:09;21.40;99.90
29547;DHT22;40782;47.264;11.330;2023-07-22T09:23:37;21.40;99.90
29547;DHT22;40782;47.264;11.330;2023-07-22T09:26:12;21.30;99.90
29547;DHT22;40782;47.264;11.330;2023-07-22T09:28:51;21.40;99.90
29547;DHT22;40782;47.264;11.330;2023-07-22T09:31:20;21.60;99.90
29547;DHT22;40782;47.264;11.330;2023-07-22T09:33:47;22.00;99.90
29547;DHT22;40782;47.264;11.330;2023-07-22T09:36:14;22.00;99.90
29547;DHT22;40782;47.264;11.330;2023-07-22T09:38:42;22.20;99.90
29547;DHT22;40782;47.264;11.330;2023-07-22T09:41:09;22.30;99.90
29547;DHT22;40782;47.264;11.330;2023-07-22T09:43:37;22.40;99.90
29547;DHT22;40782;47.264;11.330;2023-07-22T09:46:06;22.40;99.90
29547;DHT22;40782;47.264;11.330;2023-07-22T09:48:39;22.30;99.90
29547;DHT22;40782;47.264;11.330;2023-07-22T09:51:06;22.40;99.90
29547;DHT22;40782;47.264;11.330;2023-07-22T09:53:33;22.30;99.90
29547;DHT22;40782;47.264;11.330;2023-07-22T09:56:03;22.10;99.90
29547;DHT22;40782;47.264;11.330;2023-07-22T09:58:30;22.30;99.90
29547;DHT22;40782;47.264;11.330;2023-07-22T10:00:59;22.50;99.90
29547;DHT22;40782;47.264;11.330;2023-07-22T10:03:27;22.50;99.90
29547;DHT22;40782;47.264;11.330;2023-07-22T10:05:56;22.60;99.90
29547;DHT22;40782;47.264;11.330;2023-07-22T10:08:26;22.70;99.90
29547;DHT22;40782;47.264;11.330;2023-07-22T10:10:56;22.90;99.90
29547;DHT22;40782;47.264;11.330;2023-07-22T10:13:24;23.10;99.90
29547;DHT22;40782;47.264;11.330;2023-07-22T10:15:52;23.10;99.90
29547;DHT22;40782;47.264;11.330;2023-07-22T10:18:20;23.20;99.90
29547;DHT22;40782;47.264;11.330;2023-07-22T10:20:48;23.20;99.90
29547;DHT22;40782;47.264;11.330;2023-07-22T10:23:15;23.30;99.90
29547;DHT22;40782;47.264;11.330;2023-07-22T10:25:42;23.40;99.90
29547;DHT22;40782;47.264;11.330;2023-07-22T10:28:09;23.60;99.90
29547;DHT22;40782;47.264;11.330;2023-07-22T10:30:37;24.10;99.90
29547;DHT22;40782;47.264;11.330;2023-07-22T10:33:04;24.60;99.90
29547;DHT22;40782;47.264;11.330;2023-07-22T10:35:41;24.60;99.90
29547;DHT22;40782;47.264;11.330;2023-07-22T10:38:10;24.70;99.90
29547;DHT22;40782;47.264;11.330;2023-07-22T10:40:44;24.80;99.90
29547;DHT22;40782;47.264;11.330;2023-07-22T10:43:12;24.90;99.90
29547;DHT22;40782;47.264;11.330;2023-07-22T10:45:43;25.10;99.90
29547;DHT22;40782;47.264;11.330;2023-07-22T10:48:15;25.20;99.90
29547;DHT22;40782;47.264;11.330;2023-07-22T10:50:44;25.60;99.90
29547;DHT22;40782;47.264;11.330;2023-07-22T10:53:12;25.70;99.90
29547;DHT22;40782;47.264;11.330;2023-07-22T10:58:25;25.50;99.90
29547;DHT22;40782;47.264;11.330;2023-07-22T11:00:52;25.60;99.90
29547;DHT22;40782;47.264;11.330;2023-07-22T11:03:20;25.80;99.90
29547;DHT22;40782;47.264;11.330;2023-07-22T11:05:49;25.80;99.90
29547;DHT22;40782;47.264;11.330;2023-07-22T11:08:16;25.80;99.80
29547;DHT22;40782;47.264;11.330;2023-07-22T11:10:53;26.10;99.90
29547;DHT22;40782;47.264;11.330;2023-07-22T11:13:26;26.40;99.90
29547;DHT22;40782;47.264;11.330;2023-07-22T11:15:57;26.60;99.40
29547;DHT22;40782;47.264;11.330;2023-07-22T11:18:34;26.40;98.90
29547;DHT22;40782;47.264;11.330;2023-07-22T11:21:03;26.40;98.90
29547;DHT22;40782;47.264;11.330;2023-07-22T11:23:33;26.40;97.30
29547;DHT22;40782;47.264;11.330;2023-07-22T11:26:01;26.10;97.40
29547;DHT22;40782;47.264;11.330;2023-07-22T11:28:29;26.00;97.00
29547;DHT22;40782;47.264;11.330;2023-07-22T11:30:56;25.80;97.00
29547;DHT22;40782;47.264;11.330;2023-07-22T11:33:24;25.80;97.60
29547;DHT22;40782;47.264;11.330;2023-07-22T11:35:51;25.80;97.10
29547;DHT22;40782;47.264;11.330;2023-07-22T11:38:19;25.70;96.90
29547;DHT22;40782;47.264;11.330;2023-07-22T11:40:47;25.60;98.10
29547;DHT22;40782;47.264;11.330;2023-07-22T11:43:14;25.70;97.60
29547;DHT22;40782;47.264;11.330;2023-07-22T11:45:41;25.80;97.90
29547;DHT22;40782;47.264;11.330;2023-07-22T11:48:09;25.90;97.60
29547;DHT22;40782;47.264;11.330;2023-07-22T11:50:36;25.90;95.10
29547;DHT22;40782;47.264;11.330;2023-07-22T11:53:03;25.80;95.20
29547;DHT22;40782;47.264;11.330;2023-07-22T11:55:31;25.50;95.80
29547;DHT22;40782;47.264;11.330;2023-07-22T11:58:01;25.30;97.00
29547;DHT22;40782;47.264;11.330;2023-07-22T12:00:29;25.30;97.80
29547;DHT22;40782;47.264;11.330;2023-07-22T12:02:56;25.30;96.90
29547;DHT22;40782;47.264;11.330;2023-07-22T12:05:24;25.30;96.40
29547;DHT22;40782;47.264;11.330;2023-07-22T12:07:51;25.10;96.60
29547;DHT22;40782;47.264;11.330;2023-07-22T12:10:18;25.00;96.20
29547;DHT22;40782;47.264;11.330;2023-07-22T12:12:47;24.80;97.20
29547;DHT22;40782;47.264;11.330;2023-07-22T12:15:15;24.70;97.50
29547;DHT22;40782;47.264;11.330;2023-07-22T12:17:43;24.70;97.90
29547;DHT22;40782;47.264;11.330;2023-07-22T12:20:10;24.60;95.90
29547;DHT22;40782;47.264;11.330;2023-07-22T12:22:38;24.60;97.30
29547;DHT22;40782;47.264;11.330;2023-07-22T12:25:05;24.70;98.20
29547;DHT22;40782;47.264;11.330;2023-07-22T12:27:32;25.00;98.50
29547;DHT22;40782;47.264;11.330;2023-07-22T12:30:01;25.00;96.20
29547;DHT22;40782;47.264;11.330;2023-07-22T12:32:28;24.80;97.30
29547;DHT22;40782;47.264;11.330;2023-07-22T12:34:55;24.50;96.40
29547;DHT22;40782;47.264;11.330;2023-07-22T12:37:24;24.40;97.30
29547;DHT22;40782;47.264;11.330;2023-07-22T12:39:52;24.30;97.50
29547;DHT22;40782;47.264;11.330;2023-07-22T12:42:19;24.00;96.80
29547;DHT22;40782;47.264;11.330;2023-07-22T12:44:46;23.90;97.60
29547;DHT22;40782;47.264;11.330;2023-07-22T12:47:14;23.70;98.20
29547;DHT22;40782;47.264;11.330;2023-07-22T12:49:41;23.50;97.60
29547;DHT22;40782;47.264;11.330;2023-07-22T12:52:08;23.40;98.50
29547;DHT22;40782;47.264;11.330;2023-07-22T12:54:37;23.30;99.90
29547;DHT22;40782;47.264;11.330;2023-07-22T12:57:04;23.30;99.50
29547;DHT22;40782;47.264;11.330;2023-07-22T12:59:31;23.20;99.20
29547;DHT22;40782;47.264;11.330;2023-07-22T13:01:58;23.10;99.90
29547;DHT22;40782;47.264;11.330;2023-07-22T13:04:27;23.00;99.90
29547;DHT22;40782;47.264;11.330;2023-07-22T13:06:54;22.80;99.90
29547;DHT22;40782;47.264;11.330;2023-07-22T13:09:21;22.70;99.90
29547;DHT22;40782;47.264;11.330;2023-07-22T13:11:48;22.50;99.90
29547;DHT22;40782;47.264;11.330;2023-07-22T13:14:15;22.30;99.90
29547;DHT22;40782;47.264;11.330;2023-07-22T13:16:44;22.30;99.90
29547;DHT22;40782;47.264;11.330;2023-07-22T13:19:11;22.20;99.90
29547;DHT22;40782;47.264;11.330;2023-07-22T13:21:40;22.00;99.90
29547;DHT22;40782;47.264;11.330;2023-07-22T13:24:07;22.10;99.90
29547;DHT22;40782;47.264;11.330;2023-07-22T13:26:34;22.10;99.90
29547;DHT22;40782;47.264;11.330;2023-07-22T13:29:01;22.40;99.90
29547;DHT22;40782;47.264;11.330;2023-07-22T13:31:28;22.60;99.90
29547;DHT22;40782;47.264;11.330;2023-07-22T13:33:55;22.50;99.90
29547;DHT22;40782;47.264;11.330;2023-07-22T13:36:22;22.40;99.90
29547;DHT22;40782;47.264;11.330;2023-07-22T13:38:50;22.80;99.90
29547;DHT22;40782;47.264;11.330;2023-07-22T13:41:18;23.20;99.90
29547;DHT22;40782;47.264;11.330;2023-07-22T13:43:46;23.30;99.90
29547;DHT22;40782;47.264;11.330;2023-07-22T13:46:13;23.40;99.90
29547;DHT22;40782;47.264;11.330;2023-07-22T13:48:40;23.30;99.90
29547;DHT22;40782;47.264;11.330;2023-07-22T13:51:07;23.50;99.90
29547;DHT22;40782;47.264;11.330;2023-07-22T13:53:34;23.80;99.90
29547;DHT22;40782;47.264;11.330;2023-07-22T13:56:02;23.90;99.90
29547;DHT22;40782;47.264;11.330;2023-07-22T13:58:29;23.60;99.90
29547;DHT22;40782;47.264;11.330;2023-07-22T14:00:56;23.30;99.90
29547;DHT22;40782;47.264;11.330;2023-07-22T14:03:23;23.10;99.90
29547;DHT22;40782;47.264;11.330;2023-07-22T14:05:50;23.20;99.90
29547;DHT22;40782;47.264;11.330;2023-07-22T14:08:17;23.60;99.90
29547;DHT22;40782;47.264;11.330;2023-07-22T14:10:44;24.00;99.90
29547;DHT22;40782;47.264;11.330;2023-07-22T14:13:13;24.30;99.90
29547;DHT22;40782;47.264;11.330;2023-07-22T14:15:40;24.50;99.90
29547;DHT22;40782;47.264;11.330;2023-07-22T14:18:07;24.80;99.90
29547;DHT22;40782;47.264;11.330;2023-07-22T14:20:34;25.20;99.90
29547;DHT22;40782;47.264;11.330;2023-07-22T14:23:02;25.20;99.90
29547;DHT22;40782;47.264;11.330;2023-07-22T14:25:30;24.60;99.90
29547;DHT22;40782;47.264;11.330;2023-07-22T14:27:57;24.10;99.90
29547;DHT22;40782;47.264;11.330;2023-07-22T14:30:25;24.30;99.90
29547;DHT22;40782;47.264;11.330;2023-07-22T14:32:52;24.30;99.90
29547;DHT22;40782;47.264;11.330;2023-07-22T14:35:19;24.60;99.90
29547;DHT22;40782;47.264;11.330;2023-07-22T14:37:46;24.90;99.90
29547;DHT22;40782;47.264;11.330;2023-07-22T14:40:13;25.50;99.90
29547;DHT22;40782;47.264;11.330;2023-07-22T14:42:40;25.80;99.90
29547;DHT22;40782;47.264;11.330;2023-07-22T14:45:08;26.00;99.90
29547;DHT22;40782;47.264;11.330;2023-07-22T14:47:36;25.80;99.90
29547;DHT22;40782;47.264;11.330;2023-07-22T14:50:04;25.80;99.90
29547;DHT22;40782;47.264;11.330;2023-07-22T14:52:31;25.80;99.90
29547;DHT22;40782;47.264;11.330;2023-07-22T14:54:59;25.60;99.90
29547;DHT22;40782;47.264;11.330;2023-07-22T14:57:26;25.30;99.90
29547;DHT22;40782;47.264;11.330;2023-07-22T14:59:54;25.30;99.90
29547;DHT22;40782;47.264;11.330;2023-07-22T15:02:22;25.10;99.90
29547;DHT22;40782;47.264;11.330;2023-07-22T15:04:50;24.80;99.90
29547;DHT22;40782;47.264;11.330;2023-07-22T15:07:17;24.70;99.90
29547;DHT22;40782;47.264;11.330;2023-07-22T15:09:44;24.60;99.90
29547;DHT22;40782;47.264;11.330;2023-07-22T15:12:11;24.40;99.90
29547;DHT22;40782;47.264;11.330;2023-07-22T15:14:38;24.40;99.90
29547;DHT22;40782;47.264;11.330;2023-07-22T15:17:05;24.30;99.90
29547;DHT22;40782;47.264;11.330;2023-07-22T15:19:33;24.60;99.90